Flight Track Log - Related Links

Times and Time Zones

All times are in EDT time to prevent confusion due to time zone crossing. See the KAP720 flight status page for this flight to view local times or setup timezone preferences in your user account.


Time Position Orientation Groundspeed Altitude Reporting Facility
EDT Latitude Longitude Course Direction KTS MPH feet Rate Location/Type
Wed 06:54:30 PM 42.7314 -73.8478 242° Southwest 145 167 1,400  Level Boston Center
Wed 06:55:31 PM 42.7686 -73.8711 335° Northwest 150 173 1,900 446 Climbing Boston Center
Wed 06:56:31 PM 42.8058 -73.9033 328° Northwest 156 180 2,300 496 Climbing Boston Center
Wed 06:57:32 PM 42.8450 -73.9325 331° Northwest 156 180 2,900 590 Climbing Boston Center
Wed 06:58:33 PM 42.8842 -73.9589 334° Northwest 157 181 3,500 520 Climbing Boston Center
Wed 06:59:39 PM 42.9233 -73.9911 329° Northwest 158 182 4,000 472 Climbing Boston Center
Wed 07:00:40 PM 42.9603 -74.0261 325° Northwest 156 180 4,500 541 Climbing Boston Center
Wed 07:01:41 PM 42.9997 -74.0556 331° Northwest 156 180 5,100 545 Climbing Boston Center
Wed 07:02:41 PM 43.0386 -74.0878 329° Northwest 160 184 5,600 472 Climbing Boston Center
Wed 07:03:48 PM 43.0800 -74.1200 330° Northwest 162 186 6,100 453 Climbing Boston Center
Wed 07:04:27 PM 43.1089 -74.1408 332° Northwest 166 191 6,400 393 Climbing Boston Center
Wed 07:04:49 PM 43.1192 -74.1525 320° Northwest 163 188 6,500 500 Climbing Boston Center
Wed 07:05:27 PM 43.1458 -74.1703 334° Northwest 166 191 6,900 556 Climbing Boston Center
Wed 07:05:43 PM 43.1583 -74.1792 333° Northwest 165 190 7,000 500 Climbing Boston Center
Wed 07:06:27 PM 43.1828 -74.2056 322° Northwest 171 197 7,400 462 Climbing Boston Center
Wed 07:07:27 PM 43.2117 -74.2292 329° Northwest 171 197 7,800 300 Climbing Boston Center
Wed 07:08:27 PM 43.2672 -74.2764 328° Northwest 171 197 8,000 150 Climbing Boston Center
Wed 07:09:27 PM 43.3144 -74.3119 331° Northwest 183 211 8,100  Climbing Boston Center
Wed 07:10:27 PM 43.3597 -74.3478 330° Northwest 188 216 8,000 -50 Descending Boston Center
Wed 07:11:27 PM 43.4031 -74.3833 329° Northwest 188 216 8,000  Level Boston Center
Wed 07:12:27 PM 43.4483 -74.4192 330° Northwest 188 216 8,000  Level Boston Center
Wed 07:13:27 PM 43.4933 -74.4578 328° Northwest 188 216 8,000  Level Boston Center
Wed 07:14:27 PM 43.5406 -74.4939 331° Northwest 188 216 8,000  Level Boston Center
Wed 07:15:27 PM 43.5756 -74.5236 328° Northwest 188 216 8,000  Level Boston Center
Wed 07:16:39 PM 43.6311 -74.5686 330° Northwest 188 216 8,000  Level Boston Center
Wed 07:17:39 PM 43.6822 -74.6133 328° Northwest 188 216 8,000  Level Boston Center
Wed 07:18:39 PM 43.7275 -74.6525 328° Northwest 188 216 8,000  Level Boston Center
Wed 07:19:39 PM 43.7706 -74.6886 329° Northwest 188 216 8,000  Level Boston Center
Wed 07:20:39 PM 43.8197 -74.7278 330° Northwest 188 216 8,000  Level Boston Center
Wed 07:21:39 PM 43.8628 -74.7639 329° Northwest 188 216 8,000  Level Boston Center
Wed 07:22:39 PM 43.9058 -74.8003 329° Northwest 188 216 8,000  Level Boston Center
Wed 07:23:39 PM 43.9508 -74.8367 330° Northwest 188 216 8,000  Level Boston Center
Wed 07:24:39 PM 44.0000 -74.8761 330° Northwest 188 216 8,000  Level Boston Center
Wed 07:25:39 PM 44.0453 -74.9011 338° Northwest 181 208 8,000  Level Boston Center
Wed 07:26:39 PM 44.0950 -74.9175 347° North 171 197 8,000  Level Boston Center
Wed 07:27:39 PM 44.1447 -74.9369 344° North 171 197 8,000  Level Boston Center
Wed 07:28:39 PM 44.1942 -74.9564 344° North 171 197 8,000  Level Boston Center
Wed 07:29:39 PM 44.2397 -74.9758 343° North 171 197 8,000  Level Boston Center
Wed 07:30:39 PM 44.2892 -74.9925 346° North 171 197 8,000 -50 Level Boston Center
Wed 07:31:39 PM 44.3367 -75.0147 341° North 176 203 7,900 -500 Descending Boston Center
Wed 07:32:39 PM 44.3925 -75.0344 346° North 186 214 7,000 -750 Descending Boston Center
Wed 07:33:39 PM 44.4483 -75.0575 344° North 198 228 6,400 -600 Descending Boston Center
Wed 07:34:39 PM 44.5019 -75.0800 343° North 203 234 5,800 -600 Descending Boston Center

Login

Don't have an account? Register now (free) for customized features, flight alerts, and more!